sensor_id;sensor_type;location;lat;lon;timestamp;P1;durP1;ratioP1;P2;durP2;ratioP2
12788;SDS011;6458;42.710;23.192;2023-07-08T00:01:27;19.17;;;14.57;;
12788;SDS011;6458;42.710;23.192;2023-07-08T00:03:53;18.27;;;13.80;;
12788;SDS011;6458;42.710;23.192;2023-07-08T00:06:20;17.17;;;15.23;;
12788;SDS011;6458;42.710;23.192;2023-07-08T00:08:47;17.23;;;15.53;;
12788;SDS011;6458;42.710;23.192;2023-07-08T00:11:14;19.87;;;14.03;;
12788;SDS011;6458;42.710;23.192;2023-07-08T00:13:41;17.93;;;16.03;;
12788;SDS011;6458;42.710;23.192;2023-07-08T00:16:10;18.87;;;15.40;;
12788;SDS011;6458;42.710;23.192;2023-07-08T00:18:37;20.40;;;15.30;;
12788;SDS011;6458;42.710;23.192;2023-07-08T00:21:06;17.20;;;15.07;;
12788;SDS011;6458;42.710;23.192;2023-07-08T00:23:34;19.73;;;15.93;;
12788;SDS011;6458;42.710;23.192;2023-07-08T00:26:01;18.20;;;15.20;;
12788;SDS011;6458;42.710;23.192;2023-07-08T00:28:28;17.50;;;15.63;;
12788;SDS011;6458;42.710;23.192;2023-07-08T00:30:54;17.30;;;15.13;;
12788;SDS011;6458;42.710;23.192;2023-07-08T00:33:24;15.97;;;14.37;;
12788;SDS011;6458;42.710;23.192;2023-07-08T00:35:51;17.63;;;15.20;;
12788;SDS011;6458;42.710;23.192;2023-07-08T00:38:19;18.37;;;15.40;;
12788;SDS011;6458;42.710;23.192;2023-07-08T00:40:50;17.87;;;15.97;;
12788;SDS011;6458;42.710;23.192;2023-07-08T00:43:17;16.63;;;14.93;;
12788;SDS011;6458;42.710;23.192;2023-07-08T00:45:45;16.17;;;14.47;;
12788;SDS011;6458;42.710;23.192;2023-07-08T00:48:17;18.17;;;14.70;;
12788;SDS011;6458;42.710;23.192;2023-07-08T00:50:46;17.37;;;14.60;;
12788;SDS011;6458;42.710;23.192;2023-07-08T00:55:59;16.47;;;14.40;;
12788;SDS011;6458;42.710;23.192;2023-07-08T00:58:29;17.27;;;14.50;;
12788;SDS011;6458;42.710;23.192;2023-07-08T01:00:57;14.87;;;13.37;;
12788;SDS011;6458;42.710;23.192;2023-07-08T01:03:24;18.50;;;13.73;;
12788;SDS011;6458;42.710;23.192;2023-07-08T01:05:54;14.83;;;13.27;;
12788;SDS011;6458;42.710;23.192;2023-07-08T01:08:24;15.57;;;13.20;;
12788;SDS011;6458;42.710;23.192;2023-07-08T01:10:54;15.47;;;13.53;;
12788;SDS011;6458;42.710;23.192;2023-07-08T01:13:24;14.47;;;12.70;;
12788;SDS011;6458;42.710;23.192;2023-07-08T01:15:50;16.63;;;13.40;;
12788;SDS011;6458;42.710;23.192;2023-07-08T01:18:18;15.70;;;13.57;;
12788;SDS011;6458;42.710;23.192;2023-07-08T01:20:46;17.87;;;13.37;;
12788;SDS011;6458;42.710;23.192;2023-07-08T01:23:15;14.20;;;12.70;;
12788;SDS011;6458;42.710;23.192;2023-07-08T01:25:42;14.30;;;12.83;;
12788;SDS011;6458;42.710;23.192;2023-07-08T01:28:09;15.17;;;13.67;;
12788;SDS011;6458;42.710;23.192;2023-07-08T01:30:36;13.93;;;12.63;;
12788;SDS011;6458;42.710;23.192;2023-07-08T01:33:04;14.77;;;12.93;;
12788;SDS011;6458;42.710;23.192;2023-07-08T01:35:32;16.63;;;13.60;;
12788;SDS011;6458;42.710;23.192;2023-07-08T01:37:59;14.30;;;12.37;;
12788;SDS011;6458;42.710;23.192;2023-07-08T01:40:30;13.80;;;12.40;;
12788;SDS011;6458;42.710;23.192;2023-07-08T01:42:57;14.20;;;12.80;;
12788;SDS011;6458;42.710;23.192;2023-07-08T01:45:25;16.07;;;13.03;;
12788;SDS011;6458;42.710;23.192;2023-07-08T01:47:53;13.40;;;12.07;;
12788;SDS011;6458;42.710;23.192;2023-07-08T01:50:20;17.13;;;12.17;;
12788;SDS011;6458;42.710;23.192;2023-07-08T01:52:48;13.90;;;12.57;;
12788;SDS011;6458;42.710;23.192;2023-07-08T01:55:19;14.93;;;13.33;;
12788;SDS011;6458;42.710;23.192;2023-07-08T01:57:48;15.43;;;13.00;;
12788;SDS011;6458;42.710;23.192;2023-07-08T02:00:14;14.77;;;12.40;;
12788;SDS011;6458;42.710;23.192;2023-07-08T02:02:41;14.33;;;12.93;;
12788;SDS011;6458;42.710;23.192;2023-07-08T02:05:08;13.57;;;12.37;;
12788;SDS011;6458;42.710;23.192;2023-07-08T02:07:35;15.17;;;12.50;;
12788;SDS011;6458;42.710;23.192;2023-07-08T02:10:01;15.73;;;13.40;;
12788;SDS011;6458;42.710;23.192;2023-07-08T02:12:28;13.37;;;12.10;;
12788;SDS011;6458;42.710;23.192;2023-07-08T02:14:56;15.70;;;11.90;;
12788;SDS011;6458;42.710;23.192;2023-07-08T02:17:23;13.13;;;11.90;;
12788;SDS011;6458;42.710;23.192;2023-07-08T02:19:49;14.83;;;12.87;;
12788;SDS011;6458;42.710;23.192;2023-07-08T02:22:16;13.60;;;12.07;;
12788;SDS011;6458;42.710;23.192;2023-07-08T02:24:43;14.00;;;12.60;;
12788;SDS011;6458;42.710;23.192;2023-07-08T02:27:09;15.23;;;13.83;;
12788;SDS011;6458;42.710;23.192;2023-07-08T02:29:36;14.80;;;13.30;;
12788;SDS011;6458;42.710;23.192;2023-07-08T02:32:05;14.33;;;12.83;;
12788;SDS011;6458;42.710;23.192;2023-07-08T02:34:32;14.13;;;12.73;;
12788;SDS011;6458;42.710;23.192;2023-07-08T02:36:59;14.43;;;12.93;;
12788;SDS011;6458;42.710;23.192;2023-07-08T02:39:25;17.33;;;13.00;;
12788;SDS011;6458;42.710;23.192;2023-07-08T02:41:52;14.70;;;13.20;;
12788;SDS011;6458;42.710;23.192;2023-07-08T02:44:19;14.17;;;12.47;;
12788;SDS011;6458;42.710;23.192;2023-07-08T02:46:45;13.93;;;12.43;;
12788;SDS011;6458;42.710;23.192;2023-07-08T02:49:13;15.03;;;13.13;;
12788;SDS011;6458;42.710;23.192;2023-07-08T02:51:40;14.10;;;12.70;;
12788;SDS011;6458;42.710;23.192;2023-07-08T02:54:07;14.57;;;13.20;;
12788;SDS011;6458;42.710;23.192;2023-07-08T02:56:34;15.03;;;13.40;;
12788;SDS011;6458;42.710;23.192;2023-07-08T02:59:00;13.90;;;11.60;;
12788;SDS011;6458;42.710;23.192;2023-07-08T03:01:27;14.00;;;12.57;;
12788;SDS011;6458;42.710;23.192;2023-07-08T03:03:54;14.27;;;12.57;;
12788;SDS011;6458;42.710;23.192;2023-07-08T03:06:26;13.27;;;11.77;;
12788;SDS011;6458;42.710;23.192;2023-07-08T03:08:52;13.03;;;11.73;;
12788;SDS011;6458;42.710;23.192;2023-07-08T03:11:19;13.13;;;11.67;;
12788;SDS011;6458;42.710;23.192;2023-07-08T03:13:46;13.37;;;11.30;;
12788;SDS011;6458;42.710;23.192;2023-07-08T03:16:12;12.07;;;10.77;;
12788;SDS011;6458;42.710;23.192;2023-07-08T03:18:39;12.10;;;10.90;;
12788;SDS011;6458;42.710;23.192;2023-07-08T03:21:11;9.87;;;8.97;;
12788;SDS011;6458;42.710;23.192;2023-07-08T03:23:40;11.97;;;10.17;;
12788;SDS011;6458;42.710;23.192;2023-07-08T03:26:07;11.33;;;9.83;;
12788;SDS011;6458;42.710;23.192;2023-07-08T03:28:34;9.80;;;8.83;;
12788;SDS011;6458;42.710;23.192;2023-07-08T03:31:00;10.90;;;10.00;;
12788;SDS011;6458;42.710;23.192;2023-07-08T03:33:27;10.87;;;9.97;;
12788;SDS011;6458;42.710;23.192;2023-07-08T03:35:54;11.77;;;10.57;;
12788;SDS011;6458;42.710;23.192;2023-07-08T03:38:21;10.73;;;9.63;;
12788;SDS011;6458;42.710;23.192;2023-07-08T03:40:51;10.47;;;9.57;;
12788;SDS011;6458;42.710;23.192;2023-07-08T03:43:17;10.10;;;8.83;;
12788;SDS011;6458;42.710;23.192;2023-07-08T03:45:44;9.60;;;8.80;;
12788;SDS011;6458;42.710;23.192;2023-07-08T03:48:11;10.10;;;9.13;;
12788;SDS011;6458;42.710;23.192;2023-07-08T03:50:38;8.97;;;8.27;;
12788;SDS011;6458;42.710;23.192;2023-07-08T03:53:05;10.60;;;8.43;;
12788;SDS011;6458;42.710;23.192;2023-07-08T03:55:32;8.90;;;8.20;;
12788;SDS011;6458;42.710;23.192;2023-07-08T03:58:00;9.50;;;8.70;;
12788;SDS011;6458;42.710;23.192;2023-07-08T04:00:27;7.80;;;7.30;;
12788;SDS011;6458;42.710;23.192;2023-07-08T04:02:53;9.43;;;8.57;;
12788;SDS011;6458;42.710;23.192;2023-07-08T04:05:22;8.23;;;7.57;;
12788;SDS011;6458;42.710;23.192;2023-07-08T04:07:49;8.37;;;7.60;;
12788;SDS011;6458;42.710;23.192;2023-07-08T04:10:15;7.80;;;7.20;;
12788;SDS011;6458;42.710;23.192;2023-07-08T04:12:43;7.13;;;6.53;;
12788;SDS011;6458;42.710;23.192;2023-07-08T04:15:11;7.10;;;6.70;;
12788;SDS011;6458;42.710;23.192;2023-07-08T04:17:40;7.70;;;7.20;;
12788;SDS011;6458;42.710;23.192;2023-07-08T04:20:07;7.70;;;7.10;;
12788;SDS011;6458;42.710;23.192;2023-07-08T04:22:36;6.90;;;6.27;;
12788;SDS011;6458;42.710;23.192;2023-07-08T04:25:03;8.10;;;6.87;;
12788;SDS011;6458;42.710;23.192;2023-07-08T04:27:31;7.53;;;6.97;;
12788;SDS011;6458;42.710;23.192;2023-07-08T04:29:58;7.47;;;6.77;;
12788;SDS011;6458;42.710;23.192;2023-07-08T04:32:26;7.80;;;7.20;;
12788;SDS011;6458;42.710;23.192;2023-07-08T04:34:53;8.20;;;7.50;;
12788;SDS011;6458;42.710;23.192;2023-07-08T04:37:19;8.77;;;7.70;;
12788;SDS011;6458;42.710;23.192;2023-07-08T04:39:46;8.40;;;7.70;;
12788;SDS011;6458;42.710;23.192;2023-07-08T04:42:13;8.20;;;7.37;;
12788;SDS011;6458;42.710;23.192;2023-07-08T04:44:42;8.50;;;7.90;;
12788;SDS011;6458;42.710;23.192;2023-07-08T04:47:09;8.07;;;7.37;;
12788;SDS011;6458;42.710;23.192;2023-07-08T04:49:38;7.60;;;7.10;;
12788;SDS011;6458;42.710;23.192;2023-07-08T04:52:08;7.00;;;6.40;;
12788;SDS011;6458;42.710;23.192;2023-07-08T04:54:37;8.57;;;7.13;;
12788;SDS011;6458;42.710;23.192;2023-07-08T04:57:04;7.70;;;7.17;;
12788;SDS011;6458;42.710;23.192;2023-07-08T04:59:31;7.63;;;7.03;;
12788;SDS011;6458;42.710;23.192;2023-07-08T05:01:59;7.77;;;7.13;;
12788;SDS011;6458;42.710;23.192;2023-07-08T05:04:26;7.40;;;6.87;;
12788;SDS011;6458;42.710;23.192;2023-07-08T05:06:54;7.23;;;6.83;;
12788;SDS011;6458;42.710;23.192;2023-07-08T05:09:21;6.67;;;6.33;;
12788;SDS011;6458;42.710;23.192;2023-07-08T05:11:50;7.10;;;6.60;;
12788;SDS011;6458;42.710;23.192;2023-07-08T05:14:17;7.33;;;6.77;;
12788;SDS011;6458;42.710;23.192;2023-07-08T05:16:44;7.97;;;6.77;;
12788;SDS011;6458;42.710;23.192;2023-07-08T05:19:11;7.20;;;6.50;;
12788;SDS011;6458;42.710;23.192;2023-07-08T05:21:37;7.10;;;6.40;;
12788;SDS011;6458;42.710;23.192;2023-07-08T05:24:06;6.83;;;6.33;;
12788;SDS011;6458;42.710;23.192;2023-07-08T05:26:33;7.23;;;6.73;;
12788;SDS011;6458;42.710;23.192;2023-07-08T05:29:00;7.20;;;6.63;;
12788;SDS011;6458;42.710;23.192;2023-07-08T05:31:27;7.13;;;6.50;;
12788;SDS011;6458;42.710;23.192;2023-07-08T05:33:54;7.87;;;7.17;;
12788;SDS011;6458;42.710;23.192;2023-07-08T05:36:20;10.60;;;6.93;;
12788;SDS011;6458;42.710;23.192;2023-07-08T05:38:47;7.50;;;7.00;;
12788;SDS011;6458;42.710;23.192;2023-07-08T05:41:15;8.07;;;7.37;;
12788;SDS011;6458;42.710;23.192;2023-07-08T05:43:42;8.10;;;7.60;;
12788;SDS011;6458;42.710;23.192;2023-07-08T05:46:09;7.87;;;7.37;;
12788;SDS011;6458;42.710;23.192;2023-07-08T05:48:35;7.60;;;7.00;;
12788;SDS011;6458;42.710;23.192;2023-07-08T05:51:02;8.47;;;7.60;;
12788;SDS011;6458;42.710;23.192;2023-07-08T05:53:29;7.77;;;7.20;;
12788;SDS011;6458;42.710;23.192;2023-07-08T05:55:56;7.77;;;7.20;;
12788;SDS011;6458;42.710;23.192;2023-07-08T05:58:24;7.70;;;7.20;;
12788;SDS011;6458;42.710;23.192;2023-07-08T06:00:54;8.30;;;7.67;;
12788;SDS011;6458;42.710;23.192;2023-07-08T06:03:21;7.77;;;7.17;;
12788;SDS011;6458;42.710;23.192;2023-07-08T06:05:48;8.07;;;7.27;;
12788;SDS011;6458;42.710;23.192;2023-07-08T06:08:15;7.67;;;7.10;;
12788;SDS011;6458;42.710;23.192;2023-07-08T06:10:42;8.30;;;7.50;;
12788;SDS011;6458;42.710;23.192;2023-07-08T06:13:10;9.30;;;7.93;;
12788;SDS011;6458;42.710;23.192;2023-07-08T06:15:38;8.63;;;7.63;;
12788;SDS011;6458;42.710;23.192;2023-07-08T06:18:05;8.33;;;7.53;;
12788;SDS011;6458;42.710;23.192;2023-07-08T06:20:32;8.67;;;7.70;;
12788;SDS011;6458;42.710;23.192;2023-07-08T06:22:58;7.60;;;6.90;;
12788;SDS011;6458;42.710;23.192;2023-07-08T06:25:25;7.83;;;7.17;;
12788;SDS011;6458;42.710;23.192;2023-07-08T06:27:52;8.47;;;7.10;;
12788;SDS011;6458;42.710;23.192;2023-07-08T06:30:18;8.07;;;6.63;;
12788;SDS011;6458;42.710;23.192;2023-07-08T06:32:46;7.33;;;6.33;;
12788;SDS011;6458;42.710;23.192;2023-07-08T06:35:13;6.70;;;6.10;;
12788;SDS011;6458;42.710;23.192;2023-07-08T06:37:40;6.87;;;6.27;;
12788;SDS011;6458;42.710;23.192;2023-07-08T06:40:07;6.43;;;6.03;;
12788;SDS011;6458;42.710;23.192;2023-07-08T06:42:34;6.80;;;6.20;;
12788;SDS011;6458;42.710;23.192;2023-07-08T06:45:00;6.27;;;5.87;;
12788;SDS011;6458;42.710;23.192;2023-07-08T06:47:28;6.80;;;6.27;;
12788;SDS011;6458;42.710;23.192;2023-07-08T06:49:56;9.50;;;6.17;;
12788;SDS011;6458;42.710;23.192;2023-07-08T06:52:23;7.07;;;6.57;;
12788;SDS011;6458;42.710;23.192;2023-07-08T06:54:49;7.33;;;6.57;;
12788;SDS011;6458;42.710;23.192;2023-07-08T06:57:16;7.73;;;7.10;;
12788;SDS011;6458;42.710;23.192;2023-07-08T06:59:43;7.70;;;7.07;;
12788;SDS011;6458;42.710;23.192;2023-07-08T07:02:09;7.53;;;7.03;;
12788;SDS011;6458;42.710;23.192;2023-07-08T07:04:36;7.17;;;6.70;;
12788;SDS011;6458;42.710;23.192;2023-07-08T07:07:04;7.63;;;7.13;;
12788;SDS011;6458;42.710;23.192;2023-07-08T07:09:31;7.47;;;6.87;;
12788;SDS011;6458;42.710;23.192;2023-07-08T07:11:58;7.87;;;7.27;;
12788;SDS011;6458;42.710;23.192;2023-07-08T07:14:25;7.40;;;6.83;;
12788;SDS011;6458;42.710;23.192;2023-07-08T07:16:51;7.30;;;6.80;;
12788;SDS011;6458;42.710;23.192;2023-07-08T07:19:18;7.60;;;7.00;;
12788;SDS011;6458;42.710;23.192;2023-07-08T07:21:46;6.83;;;6.43;;
12788;SDS011;6458;42.710;23.192;2023-07-08T07:24:14;8.10;;;7.50;;
12788;SDS011;6458;42.710;23.192;2023-07-08T07:26:41;7.60;;;7.00;;
12788;SDS011;6458;42.710;23.192;2023-07-08T07:29:08;7.70;;;7.00;;
12788;SDS011;6458;42.710;23.192;2023-07-08T07:31:34;7.80;;;7.27;;
12788;SDS011;6458;42.710;23.192;2023-07-08T07:34:01;8.57;;;7.87;;
12788;SDS011;6458;42.710;23.192;2023-07-08T07:36:28;8.40;;;7.73;;
12788;SDS011;6458;42.710;23.192;2023-07-08T07:38:55;8.10;;;7.40;;
12788;SDS011;6458;42.710;23.192;2023-07-08T07:41:23;7.80;;;7.20;;
12788;SDS011;6458;42.710;23.192;2023-07-08T07:43:50;8.23;;;7.50;;
12788;SDS011;6458;42.710;23.192;2023-07-08T07:46:17;8.50;;;7.20;;
12788;SDS011;6458;42.710;23.192;2023-07-08T07:48:43;9.83;;;7.53;;
12788;SDS011;6458;42.710;23.192;2023-07-08T07:51:11;8.40;;;7.70;;
12788;SDS011;6458;42.710;23.192;2023-07-08T07:53:38;8.80;;;7.90;;
12788;SDS011;6458;42.710;23.192;2023-07-08T07:56:05;8.17;;;7.57;;
12788;SDS011;6458;42.710;23.192;2023-07-08T07:58:33;8.37;;;7.57;;
12788;SDS011;6458;42.710;23.192;2023-07-08T08:01:00;7.83;;;7.20;;
12788;SDS011;6458;42.710;23.192;2023-07-08T08:03:27;8.10;;;7.50;;
12788;SDS011;6458;42.710;23.192;2023-07-08T08:05:53;7.83;;;7.10;;
12788;SDS011;6458;42.710;23.192;2023-07-08T08:08:20;8.03;;;7.40;;
12788;SDS011;6458;42.710;23.192;2023-07-08T08:10:48;7.90;;;7.40;;
12788;SDS011;6458;42.710;23.192;2023-07-08T08:13:15;8.10;;;7.50;;
12788;SDS011;6458;42.710;23.192;2023-07-08T08:15:43;7.63;;;7.03;;
12788;SDS011;6458;42.710;23.192;2023-07-08T08:18:10;8.07;;;7.53;;
12788;SDS011;6458;42.710;23.192;2023-07-08T08:20:36;7.63;;;7.13;;
12788;SDS011;6458;42.710;23.192;2023-07-08T08:23:04;7.03;;;6.53;;
12788;SDS011;6458;42.710;23.192;2023-07-08T08:25:31;7.63;;;7.10;;
12788;SDS011;6458;42.710;23.192;2023-07-08T08:27:58;7.53;;;6.87;;
12788;SDS011;6458;42.710;23.192;2023-07-08T08:30:24;7.30;;;6.90;;
12788;SDS011;6458;42.710;23.192;2023-07-08T08:32:53;6.93;;;6.53;;
12788;SDS011;6458;42.710;23.192;2023-07-08T08:35:19;7.43;;;6.93;;
12788;SDS011;6458;42.710;23.192;2023-07-08T08:37:46;6.83;;;6.33;;
12788;SDS011;6458;42.710;23.192;2023-07-08T08:40:13;7.43;;;6.83;;
12788;SDS011;6458;42.710;23.192;2023-07-08T08:42:41;7.13;;;6.60;;
12788;SDS011;6458;42.710;23.192;2023-07-08T08:45:12;6.80;;;6.30;;
12788;SDS011;6458;42.710;23.192;2023-07-08T08:47:42;7.50;;;7.00;;
12788;SDS011;6458;42.710;23.192;2023-07-08T08:50:20;7.40;;;6.93;;
12788;SDS011;6458;42.710;23.192;2023-07-08T08:52:50;7.30;;;6.70;;
12788;SDS011;6458;42.710;23.192;2023-07-08T08:55:19;7.27;;;6.70;;
12788;SDS011;6458;42.710;23.192;2023-07-08T08:57:47;7.13;;;6.63;;
12788;SDS011;6458;42.710;23.192;2023-07-08T09:00:16;8.53;;;7.80;;
12788;SDS011;6458;42.710;23.192;2023-07-08T09:02:48;6.50;;;6.10;;
12788;SDS011;6458;42.710;23.192;2023-07-08T09:05:20;7.43;;;6.93;;
12788;SDS011;6458;42.710;23.192;2023-07-08T09:07:51;7.00;;;6.50;;
12788;SDS011;6458;42.710;23.192;2023-07-08T09:10:24;7.53;;;7.03;;
12788;SDS011;6458;42.710;23.192;2023-07-08T09:12:53;7.53;;;7.03;;
12788;SDS011;6458;42.710;23.192;2023-07-08T09:15:22;6.90;;;6.50;;
12788;SDS011;6458;42.710;23.192;2023-07-08T09:17:48;7.27;;;6.77;;
12788;SDS011;6458;42.710;23.192;2023-07-08T09:20:21;6.50;;;6.10;;
12788;SDS011;6458;42.710;23.192;2023-07-08T09:22:51;7.13;;;6.73;;
12788;SDS011;6458;42.710;23.192;2023-07-08T09:25:22;6.43;;;6.03;;
12788;SDS011;6458;42.710;23.192;2023-07-08T09:27:50;6.60;;;6.20;;
12788;SDS011;6458;42.710;23.192;2023-07-08T09:30:17;7.10;;;6.70;;
12788;SDS011;6458;42.710;23.192;2023-07-08T09:32:45;6.87;;;6.37;;
12788;SDS011;6458;42.710;23.192;2023-07-08T09:35:16;6.97;;;6.43;;
12788;SDS011;6458;42.710;23.192;2023-07-08T09:37:46;6.07;;;5.67;;
12788;SDS011;6458;42.710;23.192;2023-07-08T09:40:14;5.90;;;5.60;;
12788;SDS011;6458;42.710;23.192;2023-07-08T09:42:42;6.50;;;6.10;;
12788;SDS011;6458;42.710;23.192;2023-07-08T09:45:11;6.73;;;6.20;;
12788;SDS011;6458;42.710;23.192;2023-07-08T09:47:38;6.83;;;6.33;;
12788;SDS011;6458;42.710;23.192;2023-07-08T09:50:15;5.87;;;5.50;;
12788;SDS011;6458;42.710;23.192;2023-07-08T09:52:43;5.63;;;5.13;;
12788;SDS011;6458;42.710;23.192;2023-07-08T09:55:11;6.37;;;5.73;;
12788;SDS011;6458;42.710;23.192;2023-07-08T09:57:38;6.23;;;5.73;;
12788;SDS011;6458;42.710;23.192;2023-07-08T10:00:07;6.17;;;5.77;;
12788;SDS011;6458;42.710;23.192;2023-07-08T10:02:38;6.17;;;5.77;;
12788;SDS011;6458;42.710;23.192;2023-07-08T10:05:10;5.70;;;5.40;;
12788;SDS011;6458;42.710;23.192;2023-07-08T10:07:38;5.60;;;5.30;;
12788;SDS011;6458;42.710;23.192;2023-07-08T10:10:06;5.57;;;5.17;;
12788;SDS011;6458;42.710;23.192;2023-07-08T10:12:37;5.53;;;5.23;;
12788;SDS011;6458;42.710;23.192;2023-07-08T10:15:05;5.97;;;5.53;;
12788;SDS011;6458;42.710;23.192;2023-07-08T10:17:33;5.63;;;5.23;;
12788;SDS011;6458;42.710;23.192;2023-07-08T10:20:00;7.10;;;5.90;;
12788;SDS011;6458;42.710;23.192;2023-07-08T10:22:33;5.47;;;5.00;;
12788;SDS011;6458;42.710;23.192;2023-07-08T10:25:06;5.30;;;5.00;;
12788;SDS011;6458;42.710;23.192;2023-07-08T10:27:39;4.90;;;4.60;;
12788;SDS011;6458;42.710;23.192;2023-07-08T10:30:16;5.50;;;5.10;;
12788;SDS011;6458;42.710;23.192;2023-07-08T10:32:49;7.93;;;5.43;;
12788;SDS011;6458;42.710;23.192;2023-07-08T10:35:19;5.53;;;5.23;;
12788;SDS011;6458;42.710;23.192;2023-07-08T10:37:53;6.60;;;5.77;;
12788;SDS011;6458;42.710;23.192;2023-07-08T10:40:31;5.40;;;5.10;;
12788;SDS011;6458;42.710;23.192;2023-07-08T10:43:05;6.30;;;5.70;;
12788;SDS011;6458;42.710;23.192;2023-07-08T10:45:37;5.60;;;5.30;;
12788;SDS011;6458;42.710;23.192;2023-07-08T10:48:10;5.93;;;5.53;;
12788;SDS011;6458;42.710;23.192;2023-07-08T10:50:45;5.77;;;5.20;;
12788;SDS011;6458;42.710;23.192;2023-07-08T10:53:20;6.20;;;5.67;;
12788;SDS011;6458;42.710;23.192;2023-07-08T10:55:50;5.57;;;5.17;;
12788;SDS011;6458;42.710;23.192;2023-07-08T10:58:36;5.83;;;5.43;;
12788;SDS011;6458;42.710;23.192;2023-07-08T11:01:08;5.40;;;5.10;;
12788;SDS011;6458;42.710;23.192;2023-07-08T11:06:21;6.00;;;5.63;;
12788;SDS011;6458;42.710;23.192;2023-07-08T11:08:50;5.63;;;5.13;;
12788;SDS011;6458;42.710;23.192;2023-07-08T11:11:23;5.57;;;5.27;;
12788;SDS011;6458;42.710;23.192;2023-07-08T11:16:39;5.90;;;5.30;;
12788;SDS011;6458;42.710;23.192;2023-07-08T11:19:10;5.53;;;5.17;;
12788;SDS011;6458;42.710;23.192;2023-07-08T11:21:40;5.30;;;4.90;;
12788;SDS011;6458;42.710;23.192;2023-07-08T11:24:10;5.77;;;5.37;;
12788;SDS011;6458;42.710;23.192;2023-07-08T11:26:40;5.30;;;5.00;;
12788;SDS011;6458;42.710;23.192;2023-07-08T11:29:19;5.33;;;5.00;;
12788;SDS011;6458;42.710;23.192;2023-07-08T11:31:46;5.60;;;5.03;;
12788;SDS011;6458;42.710;23.192;2023-07-08T11:34:13;5.40;;;5.10;;
12788;SDS011;6458;42.710;23.192;2023-07-08T11:36:41;5.33;;;4.93;;
12788;SDS011;6458;42.710;23.192;2023-07-08T11:41:50;5.43;;;5.13;;
12788;SDS011;6458;42.710;23.192;2023-07-08T11:44:21;5.23;;;4.70;;
12788;SDS011;6458;42.710;23.192;2023-07-08T11:46:53;5.17;;;4.80;;
12788;SDS011;6458;42.710;23.192;2023-07-08T11:49:20;4.53;;;4.23;;
12788;SDS011;6458;42.710;23.192;2023-07-08T11:51:46;4.90;;;4.50;;
12788;SDS011;6458;42.710;23.192;2023-07-08T11:54:14;5.07;;;4.77;;
12788;SDS011;6458;42.710;23.192;2023-07-08T11:56:48;4.73;;;4.43;;
12788;SDS011;6458;42.710;23.192;2023-07-08T11:59:16;4.67;;;4.37;;
12788;SDS011;6458;42.710;23.192;2023-07-08T12:01:52;4.77;;;4.33;;
12788;SDS011;6458;42.710;23.192;2023-07-08T12:04:24;4.57;;;4.37;;
12788;SDS011;6458;42.710;23.192;2023-07-08T12:06:53;4.73;;;4.47;;
12788;SDS011;6458;42.710;23.192;2023-07-08T12:09:25;4.20;;;3.93;;
12788;SDS011;6458;42.710;23.192;2023-07-08T12:11:55;4.43;;;4.13;;
12788;SDS011;6458;42.710;23.192;2023-07-08T12:14:22;4.57;;;4.37;;
12788;SDS011;6458;42.710;23.192;2023-07-08T12:16:51;4.23;;;4.03;;
12788;SDS011;6458;42.710;23.192;2023-07-08T12:19:18;4.57;;;4.20;;
12788;SDS011;6458;42.710;23.192;2023-07-08T12:21:46;4.37;;;4.07;;
12788;SDS011;6458;42.710;23.192;2023-07-08T12:24:13;4.60;;;4.30;;
12788;SDS011;6458;42.710;23.192;2023-07-08T12:26:41;4.83;;;4.43;;
12788;SDS011;6458;42.710;23.192;2023-07-08T12:29:08;5.43;;;5.03;;
12788;SDS011;6458;42.710;23.192;2023-07-08T12:31:34;4.57;;;4.37;;
12788;SDS011;6458;42.710;23.192;2023-07-08T12:34:02;4.40;;;4.00;;
12788;SDS011;6458;42.710;23.192;2023-07-08T12:36:31;5.40;;;4.93;;
12788;SDS011;6458;42.710;23.192;2023-07-08T12:38:59;4.13;;;3.93;;
12788;SDS011;6458;42.710;23.192;2023-07-08T12:41:29;4.17;;;3.87;;
12788;SDS011;6458;42.710;23.192;2023-07-08T12:43:57;4.40;;;4.10;;
12788;SDS011;6458;42.710;23.192;2023-07-08T12:46:23;3.67;;;3.40;;
12788;SDS011;6458;42.710;23.192;2023-07-08T12:48:51;5.13;;;4.73;;
12788;SDS011;6458;42.710;23.192;2023-07-08T12:51:20;4.17;;;3.97;;
12788;SDS011;6458;42.710;23.192;2023-07-08T12:53:48;4.10;;;3.90;;
12788;SDS011;6458;42.710;23.192;2023-07-08T12:56:15;4.20;;;3.90;;
12788;SDS011;6458;42.710;23.192;2023-07-08T12:58:43;4.30;;;4.10;;
12788;SDS011;6458;42.710;23.192;2023-07-08T13:01:12;4.30;;;3.90;;
12788;SDS011;6458;42.710;23.192;2023-07-08T13:03:42;4.20;;;4.00;;
12788;SDS011;6458;42.710;23.192;2023-07-08T13:06:10;4.43;;;4.13;;
12788;SDS011;6458;42.710;23.192;2023-07-08T13:08:39;3.87;;;3.67;;
12788;SDS011;6458;42.710;23.192;2023-07-08T13:11:06;3.90;;;3.50;;
12788;SDS011;6458;42.710;23.192;2023-07-08T13:13:34;4.67;;;4.37;;
12788;SDS011;6458;42.710;23.192;2023-07-08T13:16:01;4.23;;;4.00;;
12788;SDS011;6458;42.710;23.192;2023-07-08T13:18:30;4.10;;;3.80;;
12788;SDS011;6458;42.710;23.192;2023-07-08T13:20:57;4.20;;;3.80;;
12788;SDS011;6458;42.710;23.192;2023-07-08T13:23:25;4.57;;;4.30;;
12788;SDS011;6458;42.710;23.192;2023-07-08T13:25:54;4.30;;;3.97;;
12788;SDS011;6458;42.710;23.192;2023-07-08T13:28:23;3.83;;;3.63;;
12788;SDS011;6458;42.710;23.192;2023-07-08T13:30:50;4.50;;;4.10;;
12788;SDS011;6458;42.710;23.192;2023-07-08T13:33:17;4.40;;;4.10;;
12788;SDS011;6458;42.710;23.192;2023-07-08T13:35:44;5.20;;;4.07;;
12788;SDS011;6458;42.710;23.192;2023-07-08T13:38:12;4.37;;;4.07;;
12788;SDS011;6458;42.710;23.192;2023-07-08T13:40:41;5.77;;;3.97;;
12788;SDS011;6458;42.710;23.192;2023-07-08T13:43:10;3.63;;;3.43;;
12788;SDS011;6458;42.710;23.192;2023-07-08T13:45:37;4.30;;;4.00;;
12788;SDS011;6458;42.710;23.192;2023-07-08T13:48:10;3.80;;;3.60;;
12788;SDS011;6458;42.710;23.192;2023-07-08T13:50:40;6.77;;;3.97;;
12788;SDS011;6458;42.710;23.192;2023-07-08T13:53:16;4.17;;;3.97;;
12788;SDS011;6458;42.710;23.192;2023-07-08T13:55:43;4.20;;;3.90;;
12788;SDS011;6458;42.710;23.192;2023-07-08T13:58:14;4.17;;;3.97;;
12788;SDS011;6458;42.710;23.192;2023-07-08T14:00:41;4.37;;;4.10;;
12788;SDS011;6458;42.710;23.192;2023-07-08T14:03:08;3.70;;;3.50;;
12788;SDS011;6458;42.710;23.192;2023-07-08T14:05:36;4.93;;;4.00;;
12788;SDS011;6458;42.710;23.192;2023-07-08T14:08:04;3.87;;;3.67;;
12788;SDS011;6458;42.710;23.192;2023-07-08T14:10:36;3.93;;;3.63;;
12788;SDS011;6458;42.710;23.192;2023-07-08T14:13:03;3.80;;;3.60;;
12788;SDS011;6458;42.710;23.192;2023-07-08T14:15:31;4.03;;;3.83;;
12788;SDS011;6458;42.710;23.192;2023-07-08T14:17:59;4.17;;;3.90;;
12788;SDS011;6458;42.710;23.192;2023-07-08T14:20:26;3.80;;;3.60;;
12788;SDS011;6458;42.710;23.192;2023-07-08T14:22:53;3.97;;;3.50;;
12788;SDS011;6458;42.710;23.192;2023-07-08T14:25:20;5.17;;;4.37;;
12788;SDS011;6458;42.710;23.192;2023-07-08T14:27:48;3.97;;;3.77;;
12788;SDS011;6458;42.710;23.192;2023-07-08T14:30:15;4.70;;;4.33;;
12788;SDS011;6458;42.710;23.192;2023-07-08T14:32:44;4.30;;;3.87;;
12788;SDS011;6458;42.710;23.192;2023-07-08T14:35:14;3.90;;;3.70;;
12788;SDS011;6458;42.710;23.192;2023-07-08T14:37:41;4.10;;;3.90;;
12788;SDS011;6458;42.710;23.192;2023-07-08T14:40:11;4.10;;;3.90;;
12788;SDS011;6458;42.710;23.192;2023-07-08T14:42:44;5.60;;;4.07;;
12788;SDS011;6458;42.710;23.192;2023-07-08T14:45:11;4.73;;;4.30;;
12788;SDS011;6458;42.710;23.192;2023-07-08T14:47:37;4.27;;;3.90;;
12788;SDS011;6458;42.710;23.192;2023-07-08T14:50:09;4.10;;;3.83;;
12788;SDS011;6458;42.710;23.192;2023-07-08T14:52:37;4.27;;;4.07;;
12788;SDS011;6458;42.710;23.192;2023-07-08T14:55:04;4.13;;;3.80;;
12788;SDS011;6458;42.710;23.192;2023-07-08T14:57:32;4.10;;;3.90;;